createdAt,value
2018-12-11T00:02:05.983Z,93.20
2018-12-11T00:04:46.782Z,93.40
2018-12-11T00:07:24.315Z,93.60
2018-12-11T00:10:01.811Z,93.80
2018-12-11T00:12:39.342Z,93.90
2018-12-11T00:15:16.849Z,94.10
2018-12-11T00:17:54.402Z,94.40
2018-12-11T00:20:31.914Z,94.80
2018-12-11T00:23:22.413Z,95.20
2018-12-11T00:25:59.923Z,95.40
2018-12-11T00:28:37.436Z,95.60
2018-12-11T00:31:14.945Z,95.70
2018-12-11T00:33:53.554Z,95.80
2018-12-11T00:36:31.059Z,95.90
2018-12-11T00:39:10.189Z,95.90
2018-12-11T00:41:47.699Z,95.80
2018-12-11T00:44:28.527Z,95.70
2018-12-11T00:47:06.061Z,95.70
2018-12-11T00:49:43.553Z,95.70
2018-12-11T00:52:21.074Z,95.60
2018-12-11T00:54:58.571Z,95.50
2018-12-11T00:57:36.074Z,95.50
2018-12-11T01:00:13.587Z,95.40
2018-12-11T01:02:54.257Z,95.30
2018-12-11T01:05:31.763Z,95.30
2018-12-11T01:08:09.282Z,95.30
2018-12-11T01:10:46.789Z,95.20
2018-12-11T01:13:24.429Z,95.30
2018-12-11T01:16:01.958Z,95.30
2018-12-11T01:18:39.493Z,95.30
2018-12-11T01:21:17.005Z,95.20
2018-12-11T01:24:04.339Z,95.20
2018-12-11T01:26:41.850Z,95.20
2018-12-11T01:29:19.382Z,95.10
2018-12-11T01:31:56.896Z,95.10
2018-12-11T01:34:40.639Z,95.00
2018-12-11T01:37:18.135Z,94.90
2018-12-11T01:39:55.679Z,94.90
2018-12-11T01:42:33.365Z,94.80
2018-12-11T01:45:13.220Z,94.80
2018-12-11T01:47:50.808Z,94.80
2018-12-11T01:50:28.302Z,94.80
2018-12-11T01:53:22.428Z,94.70
2018-12-11T01:55:59.931Z,94.70
2018-12-11T01:58:37.443Z,94.60
2018-12-11T02:01:14.966Z,94.60
2018-12-11T02:03:53.124Z,94.60
2018-12-11T02:06:30.635Z,94.80
2018-12-11T02:09:08.944Z,94.40
2018-12-11T02:11:46.450Z,94.40
2018-12-11T02:14:24.110Z,94.30
2018-12-11T02:17:01.625Z,94.20
2018-12-11T02:19:39.141Z,94.20
2018-12-11T02:22:16.659Z,94.20
2018-12-11T02:24:54.171Z,94.10
2018-12-11T02:27:31.663Z,94.00
2018-12-11T02:30:09.577Z,94.00
2018-12-11T02:32:54.439Z,93.90
2018-12-11T02:35:31.991Z,93.90
2018-12-11T02:38:09.526Z,93.80
2018-12-11T02:40:47.044Z,93.80
2018-12-11T02:43:24.697Z,93.80
2018-12-11T02:46:02.203Z,93.80
2018-12-11T02:48:39.735Z,93.80
2018-12-11T02:51:17.239Z,93.90
2018-12-11T02:53:54.904Z,93.90
2018-12-11T02:56:32.427Z,93.90
2018-12-11T02:59:09.932Z,94.00
2018-12-11T03:01:47.449Z,94.10
2018-12-11T03:04:24.994Z,94.10
2018-12-11T03:07:02.487Z,94.10
2018-12-11T03:09:40.012Z,94.10
2018-12-11T03:12:24.074Z,94.20
2018-12-11T03:15:01.600Z,94.20
2018-12-11T03:17:39.108Z,94.10
2018-12-11T03:20:16.627Z,94.20
2018-12-11T03:23:00.646Z,94.30
2018-12-11T03:25:38.189Z,94.30
2018-12-11T03:28:15.702Z,94.40
2018-12-11T03:30:53.212Z,94.40
2018-12-11T03:33:30.876Z,94.50
2018-12-11T03:36:08.378Z,94.50
2018-12-11T03:38:45.904Z,94.40
2018-12-11T03:41:23.437Z,94.40
2018-12-11T03:44:04.230Z,94.40
2018-12-11T03:46:43.096Z,94.40
2018-12-11T03:49:20.640Z,94.20
2018-12-11T03:52:08.118Z,94.20
2018-12-11T03:54:45.640Z,94.00
2018-12-11T03:57:23.138Z,93.80
2018-12-11T04:00:00.651Z,93.70
2018-12-11T04:02:41.585Z,93.50
2018-12-11T04:05:19.103Z,92.90
2018-12-11T04:07:56.629Z,92.80
2018-12-11T04:10:34.166Z,92.70
2018-12-11T04:13:18.024Z,92.40
2018-12-11T04:15:55.538Z,92.30
2018-12-11T04:18:33.037Z,91.90
2018-12-11T04:21:10.583Z,91.70
2018-12-11T04:23:57.913Z,91.50
2018-12-11T04:26:35.412Z,91.20
2018-12-11T04:29:12.934Z,90.80
2018-12-11T04:31:50.550Z,90.50
2018-12-11T04:34:28.095Z,90.30
2018-12-11T04:37:05.613Z,90.10
2018-12-11T04:39:43.398Z,90.00
2018-12-11T04:42:30.561Z,89.70
2018-12-11T04:45:08.451Z,89.50
2018-12-11T04:47:45.937Z,89.10
2018-12-11T04:50:23.476Z,88.50
2018-12-11T04:53:14.455Z,88.30
2018-12-11T04:55:52.000Z,87.80
2018-12-11T04:58:29.514Z,87.20
2018-12-11T05:01:07.027Z,87.70
2018-12-11T05:03:50.876Z,87.60
2018-12-11T05:06:28.418Z,87.40
2018-12-11T05:09:05.974Z,86.90
2018-12-11T05:11:46.951Z,86.70
2018-12-11T05:14:24.487Z,86.40
2018-12-11T05:17:01.981Z,86.20
2018-12-11T05:19:39.494Z,86.00
2018-12-11T05:22:17.092Z,86.70
2018-12-11T05:24:54.761Z,85.80
2018-12-11T05:27:32.268Z,86.20
2018-12-11T05:30:10.694Z,87.40
2018-12-11T05:32:48.298Z,87.70
2018-12-11T05:35:25.836Z,88.30
2018-12-11T05:38:03.347Z,88.70
2018-12-11T05:40:40.870Z,89.30
2018-12-11T05:43:18.460Z,89.80
2018-12-11T05:45:56.835Z,90.10
2018-12-11T05:48:34.365Z,90.30
2018-12-11T05:51:12.993Z,90.50
2018-12-11T05:53:49.389Z,90.70
2018-12-11T05:56:26.982Z,90.80
2018-12-11T05:59:04.455Z,91.00
2018-12-11T06:01:43.086Z,91.00
2018-12-11T06:04:20.573Z,91.10
2018-12-11T06:06:58.088Z,91.00
2018-12-11T06:09:35.619Z,91.10
2018-12-11T06:12:13.217Z,91.10
2018-12-11T06:14:50.739Z,91.10
2018-12-11T06:17:28.238Z,91.10
2018-12-11T06:20:05.775Z,91.10
2018-12-11T06:22:43.384Z,91.10
2018-12-11T06:25:20.922Z,91.00
2018-12-11T06:28:02.060Z,90.90
2018-12-11T06:30:39.591Z,90.80
2018-12-11T06:33:19.201Z,90.80
2018-12-11T06:35:56.722Z,90.70
2018-12-11T06:38:34.238Z,90.70
2018-12-11T06:41:13.860Z,90.70
2018-12-11T06:43:51.363Z,91.10
2018-12-11T06:46:28.894Z,90.80
2018-12-11T06:49:06.405Z,90.80
2018-12-11T06:51:44.010Z,90.80
2018-12-11T06:54:21.508Z,90.80
2018-12-11T06:56:59.038Z,90.80
2018-12-11T06:59:36.531Z,90.80
2018-12-11T07:02:14.196Z,90.80
2018-12-11T07:04:51.778Z,90.80
2018-12-11T07:07:29.231Z,90.90
2018-12-11T07:10:07.544Z,90.90
2018-12-11T07:12:45.154Z,90.90
2018-12-11T07:15:22.682Z,90.90
2018-12-11T07:18:00.174Z,91.00
2018-12-11T07:20:37.694Z,91.00
2018-12-11T07:23:15.334Z,90.90
2018-12-11T07:25:52.874Z,91.00
2018-12-11T07:28:30.388Z,90.90
2018-12-11T07:31:08.016Z,90.90
2018-12-11T07:33:50.823Z,90.90
2018-12-11T07:36:23.050Z,90.90
2018-12-11T07:39:00.564Z,90.80
2018-12-11T07:41:38.208Z,90.80
2018-12-11T07:44:15.708Z,90.70
2018-12-11T07:46:53.224Z,90.60
2018-12-11T07:49:30.731Z,90.50
2018-12-11T07:52:08.351Z,90.40
2018-12-11T07:54:45.876Z,90.40
2018-12-11T07:57:23.409Z,90.30
2018-12-11T08:00:00.903Z,90.30
2018-12-11T08:02:38.526Z,90.40
2018-12-11T08:05:16.028Z,90.40
2018-12-11T08:07:53.541Z,90.40
2018-12-11T08:10:31.093Z,90.40
2018-12-11T08:13:11.971Z,90.40
2018-12-11T08:15:49.522Z,90.40
2018-12-11T08:18:27.017Z,90.30
2018-12-11T08:21:04.670Z,90.30
2018-12-11T08:23:42.178Z,90.30
2018-12-11T08:26:19.700Z,90.10
2018-12-11T08:28:57.209Z,90.10
2018-12-11T08:31:34.838Z,90.00
2018-12-11T08:34:12.326Z,90.00
2018-12-11T08:36:49.862Z,90.00
2018-12-11T08:39:27.381Z,89.70
2018-12-11T08:42:05.000Z,89.50
2018-12-11T08:44:42.497Z,89.50
2018-12-11T08:47:20.037Z,89.40
2018-12-11T08:49:57.586Z,89.40
2018-12-11T08:52:36.191Z,89.20
2018-12-11T08:55:13.694Z,88.80
2018-12-11T08:57:51.208Z,88.70
2018-12-11T09:00:29.111Z,88.60
2018-12-11T09:03:06.634Z,89.00
2018-12-11T09:05:44.139Z,88.50
2018-12-11T09:08:21.646Z,88.40
2018-12-11T09:11:00.267Z,88.30
2018-12-11T09:13:37.807Z,88.10
2018-12-11T09:16:15.354Z,88.00
2018-12-11T09:18:52.915Z,87.90
2018-12-11T09:21:30.527Z,87.40
2018-12-11T09:24:08.021Z,87.30
2018-12-11T09:26:45.542Z,87.00
2018-12-11T09:29:23.052Z,86.80
2018-12-11T09:32:02.660Z,86.30
2018-12-11T09:34:40.184Z,86.50
2018-12-11T09:37:17.704Z,85.10
2018-12-11T09:39:55.237Z,84.60
2018-12-11T09:42:32.843Z,84.30
2018-12-11T09:45:11.043Z,83.90
2018-12-11T09:47:48.579Z,83.50
2018-12-11T09:50:26.092Z,83.40
2018-12-11T09:53:03.626Z,82.90
2018-12-11T09:55:41.122Z,82.40
2018-12-11T09:58:18.644Z,81.70
2018-12-11T10:00:56.270Z,81.60
2018-12-11T10:03:33.818Z,81.70
2018-12-11T10:06:11.287Z,81.60
2018-12-11T10:08:48.813Z,80.90
2018-12-11T10:11:28.433Z,80.70
2018-12-11T10:14:05.963Z,81.60
2018-12-11T10:16:43.485Z,80.50
2018-12-11T10:19:20.985Z,80.40
2018-12-11T10:21:58.563Z,80.50
2018-12-11T10:24:36.071Z,80.20
2018-12-11T10:27:13.613Z,80.30
2018-12-11T10:29:51.116Z,80.40
2018-12-11T10:32:28.810Z,80.40
2018-12-11T10:35:06.573Z,80.10
2018-12-11T10:37:44.092Z,80.40
2018-12-11T10:40:21.711Z,80.40
2018-12-11T10:42:59.221Z,80.50
2018-12-11T10:45:36.701Z,80.30
2018-12-11T10:48:14.234Z,80.40
2018-12-11T10:51:00.470Z,80.20
2018-12-11T10:53:37.995Z,80.20
2018-12-11T10:56:15.504Z,79.90
2018-12-11T10:58:53.021Z,79.90
2018-12-11T11:01:36.582Z,79.90
2018-12-11T11:04:14.123Z,79.60
2018-12-11T11:06:51.686Z,79.70
2018-12-11T11:09:29.189Z,79.60
2018-12-11T11:12:07.809Z,79.50
2018-12-11T11:14:45.317Z,79.60
2018-12-11T11:17:22.806Z,79.70
2018-12-11T11:20:00.328Z,79.70
2018-12-11T11:22:37.858Z,79.80
2018-12-11T11:25:15.374Z,79.60
2018-12-11T11:27:52.904Z,79.50
2018-12-11T11:30:30.553Z,79.20
2018-12-11T11:33:08.057Z,79.20
2018-12-11T11:35:45.543Z,79.20
2018-12-11T11:38:23.067Z,79.00
2018-12-11T11:41:10.120Z,79.10
2018-12-11T11:43:47.621Z,79.20
2018-12-11T11:46:25.113Z,79.00
2018-12-11T11:49:02.650Z,79.10
2018-12-11T11:51:40.171Z,79.00
2018-12-11T11:54:17.666Z,79.20
2018-12-11T11:56:55.144Z,79.20
2018-12-11T11:59:32.657Z,79.00
2018-12-11T12:02:10.266Z,79.00
2018-12-11T12:04:47.790Z,78.90
2018-12-11T12:07:25.308Z,78.90
2018-12-11T12:10:02.919Z,78.80
2018-12-11T12:12:40.441Z,79.10
2018-12-11T12:15:18.058Z,79.20
2018-12-11T12:17:55.466Z,79.00
2018-12-11T12:20:39.741Z,79.40
2018-12-11T12:23:17.248Z,79.50
2018-12-11T12:25:54.729Z,79.50
2018-12-11T12:28:32.242Z,79.50
2018-12-11T12:31:20.059Z,79.50
2018-12-11T12:33:57.581Z,79.50
2018-12-11T12:36:35.060Z,79.40
2018-12-11T12:39:12.973Z,79.50
2018-12-11T12:41:57.299Z,79.30
2018-12-11T12:44:34.802Z,79.00
2018-12-11T12:47:12.287Z,79.00
2018-12-11T12:49:50.761Z,78.90
2018-12-11T12:52:27.376Z,79.00
2018-12-11T12:55:04.887Z,79.00
2018-12-11T12:57:42.503Z,79.00
2018-12-11T13:00:20.041Z,79.40
2018-12-11T13:02:57.539Z,79.40
2018-12-11T13:05:35.027Z,79.50
2018-12-11T13:08:12.608Z,79.70
2018-12-11T13:10:50.226Z,79.80
2018-12-11T13:13:27.756Z,80.00
2018-12-11T13:16:05.294Z,80.00
2018-12-11T13:18:42.820Z,80.00
2018-12-11T13:21:33.593Z,80.00
2018-12-11T13:24:11.106Z,80.00
2018-12-11T13:26:48.598Z,80.00
2018-12-11T13:29:26.107Z,80.00
2018-12-11T13:32:03.565Z,80.10
2018-12-11T13:34:41.078Z,79.90
2018-12-11T13:37:18.561Z,80.00
2018-12-11T13:40:02.920Z,79.90
2018-12-11T13:42:40.435Z,80.00
2018-12-11T13:45:17.942Z,79.70
2018-12-11T13:47:55.423Z,79.80
2018-12-11T13:50:39.319Z,79.70
2018-12-11T13:53:16.827Z,79.70
2018-12-11T13:55:54.335Z,79.60
2018-12-11T13:58:31.839Z,79.70
2018-12-11T14:01:10.417Z,80.00
2018-12-11T14:03:47.920Z,80.40
2018-12-11T14:06:25.409Z,80.60
2018-12-11T14:09:21.655Z,81.20
2018-12-11T14:11:59.089Z,81.60
2018-12-11T14:14:36.599Z,82.00
2018-12-11T14:17:14.075Z,82.60
2018-12-11T14:19:51.711Z,81.70
2018-12-11T14:22:29.193Z,81.60
2018-12-11T14:25:06.688Z,81.50
2018-12-11T14:27:44.169Z,81.40
2018-12-11T14:30:35.273Z,81.30
2018-12-11T14:33:12.765Z,81.10
2018-12-11T14:35:50.264Z,81.10
2018-12-11T14:38:27.801Z,81.10
2018-12-11T14:41:13.964Z,81.00
2018-12-11T14:43:51.484Z,81.70
2018-12-11T14:46:28.983Z,80.60
2018-12-11T14:49:06.498Z,80.70
2018-12-11T14:51:44.002Z,80.70
2018-12-11T14:54:21.541Z,80.70
2018-12-11T14:56:59.020Z,80.80
2018-12-11T14:59:39.880Z,81.00
2018-12-11T15:02:17.348Z,81.30
2018-12-11T15:04:54.852Z,82.10
2018-12-11T15:07:32.329Z,81.60
2018-12-11T15:10:13.087Z,81.80
2018-12-11T15:12:50.596Z,81.80
2018-12-11T15:15:28.104Z,82.00
2018-12-11T15:18:05.616Z,82.00
2018-12-11T15:20:53.422Z,82.00
2018-12-11T15:23:30.900Z,82.00
2018-12-11T15:26:08.405Z,82.00
2018-12-11T15:28:45.907Z,82.20
2018-12-11T15:31:33.643Z,82.30
2018-12-11T15:34:11.152Z,82.50
2018-12-11T15:36:48.629Z,82.60
2018-12-11T15:39:35.762Z,82.70
2018-12-11T15:42:10.521Z,82.70
2018-12-11T15:44:48.038Z,83.50
2018-12-11T15:47:25.539Z,82.70
2018-12-11T15:50:06.682Z,82.70
2018-12-11T15:52:44.164Z,82.70
2018-12-11T15:55:21.683Z,82.90
2018-12-11T15:57:59.177Z,82.90
2018-12-11T16:00:36.786Z,83.00
2018-12-11T16:03:14.261Z,83.00
2018-12-11T16:05:51.768Z,83.00
2018-12-11T16:08:29.258Z,83.00
2018-12-11T16:11:12.884Z,82.90
2018-12-11T16:13:50.373Z,82.80
2018-12-11T16:16:28.010Z,82.70
2018-12-11T16:19:05.439Z,82.70
2018-12-11T16:21:42.954Z,82.70
2018-12-11T16:24:20.456Z,82.50
2018-12-11T16:26:57.940Z,82.30
2018-12-11T16:29:35.548Z,82.10
2018-12-11T16:32:16.195Z,82.00
2018-12-11T16:34:53.706Z,81.80
2018-12-11T16:37:31.193Z,81.90
2018-12-11T16:40:12.260Z,82.00
2018-12-11T16:42:49.761Z,82.30
2018-12-11T16:45:27.271Z,82.70
2018-12-11T16:48:04.756Z,83.10
2018-12-11T16:50:45.691Z,83.10
2018-12-11T16:53:23.189Z,83.40
2018-12-11T16:56:00.727Z,83.10
2018-12-11T16:58:38.257Z,83.40
2018-12-11T17:01:16.896Z,83.40
2018-12-11T17:03:54.394Z,83.10
2018-12-11T17:06:31.906Z,83.00
2018-12-11T17:09:17.551Z,82.90
2018-12-11T17:11:55.056Z,82.90
2018-12-11T17:14:36.751Z,82.70
2018-12-11T17:17:14.244Z,82.80
2018-12-11T17:19:55.037Z,83.00
2018-12-11T17:22:32.527Z,83.10
2018-12-11T17:25:10.372Z,83.20
2018-12-11T17:27:48.845Z,83.50
2018-12-11T17:30:33.974Z,83.90
2018-12-11T17:33:12.372Z,84.20
2018-12-11T17:35:50.673Z,84.30
2018-12-11T17:38:29.165Z,84.90
2018-12-11T17:41:07.804Z,85.90
2018-12-11T17:43:46.132Z,85.80
2018-12-11T17:46:24.154Z,87.00
2018-12-11T17:49:02.455Z,87.70
2018-12-11T17:51:40.781Z,87.40
2018-12-11T17:54:18.864Z,87.90
2018-12-11T17:56:56.890Z,88.60
2018-12-11T17:59:35.007Z,88.70
2018-12-11T18:02:18.287Z,89.00
2018-12-11T18:04:56.889Z,88.80
2018-12-11T18:07:35.265Z,88.80
2018-12-11T18:10:15.316Z,89.30
2018-12-11T18:12:56.234Z,88.60
2018-12-11T18:15:34.405Z,88.30
2018-12-11T18:18:12.587Z,88.10
2018-12-11T18:20:51.324Z,88.00
2018-12-11T18:23:29.379Z,87.70
2018-12-11T18:26:07.721Z,87.50
2018-12-11T18:28:46.051Z,87.40
2018-12-11T18:31:24.620Z,87.60
2018-12-11T18:34:02.162Z,87.70
2018-12-11T18:36:39.706Z,87.90
2018-12-11T18:39:17.311Z,88.10
2018-12-11T18:41:54.856Z,88.30
2018-12-11T18:44:32.395Z,88.90
2018-12-11T18:47:09.926Z,89.40
2018-12-11T18:49:50.670Z,89.80
2018-12-11T18:52:28.238Z,90.00
2018-12-11T18:55:05.747Z,90.00
2018-12-11T18:57:43.268Z,90.00
2018-12-11T19:00:30.463Z,90.00
2018-12-11T19:03:08.010Z,90.00
2018-12-11T19:05:45.527Z,89.80
2018-12-11T19:08:23.148Z,89.60
2018-12-11T19:11:00.653Z,89.50
2018-12-11T19:13:38.180Z,89.30
2018-12-11T19:16:15.644Z,89.10
2018-12-11T19:18:59.796Z,89.10
2018-12-11T19:21:37.359Z,88.80
2018-12-11T19:24:44.684Z,88.60
2018-12-11T19:27:22.193Z,88.40
2018-12-11T19:30:06.154Z,88.30
2018-12-11T19:32:43.670Z,88.00
2018-12-11T19:35:21.170Z,88.30
2018-12-11T19:37:58.669Z,87.70
2018-12-11T19:40:40.680Z,87.50
2018-12-11T19:43:13.754Z,87.30
2018-12-11T19:45:52.234Z,87.00
2018-12-11T19:48:38.379Z,86.80
2018-12-11T19:51:15.850Z,86.70
2018-12-11T19:53:53.515Z,86.50
2018-12-11T19:56:31.021Z,86.60
2018-12-11T19:59:08.633Z,87.30
2018-12-11T20:01:46.146Z,88.20
2018-12-11T20:04:23.662Z,89.50
2018-12-11T20:07:01.195Z,90.10
2018-12-11T20:09:57.417Z,90.40
2018-12-11T20:12:34.949Z,90.70
2018-12-11T20:15:12.431Z,91.30
2018-12-11T20:17:49.938Z,91.60
2018-12-11T20:20:34.894Z,91.90
2018-12-11T20:23:12.411Z,92.00
2018-12-11T20:25:49.895Z,92.30
2018-12-11T20:28:34.037Z,92.50
2018-12-11T20:31:11.527Z,92.70
2018-12-11T20:33:49.033Z,92.90
2018-12-11T20:36:26.519Z,92.90
2018-12-11T20:39:07.380Z,93.10
2018-12-11T20:41:44.890Z,93.10
2018-12-11T20:44:22.409Z,93.10
2018-12-11T20:46:59.900Z,93.20
2018-12-11T20:49:37.526Z,93.20
2018-12-11T20:52:15.005Z,93.20
2018-12-11T20:54:52.523Z,93.20
2018-12-11T20:57:30.014Z,93.20
2018-12-11T21:00:09.095Z,93.20
2018-12-11T21:02:46.591Z,93.30
2018-12-11T21:05:24.127Z,93.30
2018-12-11T21:08:04.895Z,93.30
2018-12-11T21:10:42.413Z,93.20
2018-12-11T21:13:19.955Z,93.20
2018-12-11T21:15:57.529Z,93.30
2018-12-11T21:18:35.076Z,93.30
2018-12-11T21:21:12.583Z,93.30
2018-12-11T21:23:50.166Z,93.30
2018-12-11T21:26:27.667Z,93.30
2018-12-11T21:29:08.288Z,93.20
2018-12-11T21:31:45.768Z,93.20
2018-12-11T21:34:23.272Z,93.20
2018-12-11T21:37:00.858Z,93.30
2018-12-11T21:39:38.458Z,93.20
2018-12-11T21:42:15.959Z,93.20
2018-12-11T21:44:53.466Z,93.10
2018-12-11T21:47:30.976Z,93.00
2018-12-11T21:50:10.251Z,93.00
2018-12-11T21:52:47.735Z,93.00
2018-12-11T21:55:25.232Z,92.90
2018-12-11T21:58:02.833Z,92.90
2018-12-11T22:00:40.335Z,92.90
2018-12-11T22:03:17.802Z,92.90
2018-12-11T22:05:55.298Z,92.90
2018-12-11T22:08:32.877Z,92.90
2018-12-11T22:11:10.388Z,92.90
2018-12-11T22:13:47.901Z,93.00
2018-12-11T22:16:25.379Z,93.00
2018-12-11T22:19:04.935Z,93.00
2018-12-11T22:21:42.417Z,93.10
2018-12-11T22:24:19.928Z,93.10
2018-12-11T22:26:57.422Z,93.20
2018-12-11T22:29:38.586Z,93.20
2018-12-11T22:32:16.085Z,93.20
2018-12-11T22:34:53.616Z,93.30
2018-12-11T22:37:34.511Z,93.50
2018-12-11T22:40:12.171Z,93.60
2018-12-11T22:42:49.665Z,93.70
2018-12-11T22:45:27.188Z,93.80
2018-12-11T22:48:04.777Z,93.90
2018-12-11T22:50:42.293Z,94.00
2018-12-11T22:53:19.790Z,94.10
2018-12-11T22:55:57.294Z,94.20
2018-12-11T22:58:36.880Z,94.30
2018-12-11T23:01:14.375Z,94.30
2018-12-11T23:03:51.874Z,94.40
2018-12-11T23:06:29.378Z,94.40
2018-12-11T23:09:08.271Z,94.50
2018-12-11T23:11:45.819Z,94.50
2018-12-11T23:14:23.342Z,94.70
2018-12-11T23:17:00.839Z,94.60
2018-12-11T23:19:38.365Z,94.60
2018-12-11T23:22:15.854Z,94.70
2018-12-11T23:24:53.365Z,94.70
2018-12-11T23:27:31.972Z,94.80
2018-12-11T23:30:09.500Z,94.80
2018-12-11T23:32:46.979Z,94.80
2018-12-11T23:35:24.495Z,94.80
2018-12-11T23:38:10.438Z,94.90
2018-12-11T23:40:47.946Z,94.90
2018-12-11T23:43:25.442Z,94.90
2018-12-11T23:46:02.972Z,95.00
2018-12-11T23:48:47.771Z,95.00
2018-12-11T23:51:25.285Z,95.00
2018-12-11T23:54:02.795Z,94.90
2018-12-11T23:56:40.349Z,94.90
2018-12-11T23:59:17.939Z,94.90
